KCGF/CGF METAR and TAF weather

Enter ICAO airport designator
Station Type Date Time Source
KCGF METAR 2022/01/29 13:45 UTC NOAA

KCGF 291345Z 00000KT 20SM BKN030 M16/M17 A3018


Station Type Date Time Source
KCGF Decoded METAR 2022/01/29 13:45 UTC NOAA

Cleveland / Cuyahoga, OH, United States (KCGF) 41-34N 081-29W
Jan 29, 2022 - 08:45 AM EST / 2022.01.29 1345 UTC
Wind: Calm:0
Visibility: 20 mile(s):0
Sky conditions: mostly cloudy
Temperature: 3 F (-16 C)
Dew Point: 1 F (-17 C)
Relative Humidity: 91%
Pressure (altimeter): 30.18 in. Hg (1022 hPa)
ob: KCGF 291345Z 00000KT 20SM BKN030 M16/M17 A3018
cycle: 14

Station Type Date Time Source
KCGF TAF 2016/07/19 12:36 UTC NOAA

TAF KCGF 191136Z 1912/2012 VRB05KT P6SM SCT080
FM191400 33008KT P6SM SCT040
FM191900 35008KT P6SM SCT060
FM200000 04003KT P6SM SCT080
FM200700 14003KT P6SM SKC

Example: see airport list